createdAt,value
2023-05-03T00:02:39.122Z,5.60
2023-05-03T00:05:41.197Z,5.30
2023-05-03T00:08:43.590Z,5.30
2023-05-03T00:11:45.459Z,5.40
2023-05-03T00:14:47.268Z,5.40
2023-05-03T00:21:27.067Z,5.40
2023-05-03T00:24:28.872Z,5.30
2023-05-03T00:27:30.694Z,5.20
2023-05-03T00:30:32.400Z,5.20
2023-05-03T00:33:34.124Z,5.10
2023-05-03T00:36:37.158Z,5.20
2023-05-03T00:39:39.050Z,5.10
2023-05-03T00:42:40.774Z,5.00
2023-05-03T00:45:42.641Z,4.90
2023-05-03T00:48:48.179Z,4.90
2023-05-03T00:51:52.028Z,4.90
2023-05-03T00:54:53.894Z,4.90
2023-05-03T00:57:56.057Z,4.90
2023-05-03T01:00:58.011Z,4.90
2023-05-03T01:04:04.101Z,4.80
2023-05-03T01:07:14.967Z,4.80
2023-05-03T01:10:46.653Z,4.80
2023-05-03T01:14:06.911Z,4.70
2023-05-03T01:17:12.499Z,4.70
2023-05-03T01:20:16.134Z,4.80
2023-05-03T01:23:40.607Z,4.70
2023-05-03T01:26:42.318Z,4.60
2023-05-03T01:29:44.367Z,4.60
2023-05-03T01:33:04.707Z,4.50
2023-05-03T01:36:20.405Z,4.50
2023-05-03T01:39:26.066Z,4.50
2023-05-03T01:42:29.269Z,4.40
2023-05-03T01:45:31.243Z,4.30
2023-05-03T01:48:33.018Z,4.30
2023-05-03T01:51:34.917Z,4.30
2023-05-03T01:54:36.617Z,4.20
2023-05-03T01:57:38.314Z,4.20
2023-05-03T02:00:40.142Z,4.10
2023-05-03T02:03:41.850Z,4.00
2023-05-03T02:06:44.901Z,4.10
2023-05-03T02:13:16.915Z,4.00
2023-05-03T02:16:19.399Z,4.70
2023-05-03T02:19:21.968Z,3.70
2023-05-03T02:22:24.243Z,4.10
2023-05-03T02:25:27.655Z,5.00
2023-05-03T02:28:30.160Z,3.90
2023-05-03T02:31:32.351Z,4.30
2023-05-03T02:34:34.975Z,4.10
2023-05-03T02:37:37.113Z,5.10
2023-05-03T02:40:44.271Z,4.50
2023-05-03T02:43:46.211Z,4.00
2023-05-03T02:46:48.297Z,4.00
2023-05-03T02:49:52.130Z,3.80
2023-05-03T02:52:53.936Z,3.80
2023-05-03T02:55:55.873Z,3.90
2023-05-03T02:58:57.604Z,3.90
2023-05-03T03:01:59.497Z,3.80
2023-05-03T03:05:01.647Z,3.70
2023-05-03T03:08:03.925Z,3.50
2023-05-03T03:11:06.642Z,3.70
2023-05-03T03:14:08.393Z,3.60
2023-05-03T03:17:10.625Z,3.60
2023-05-03T03:20:12.730Z,3.60
2023-05-03T03:23:17.555Z,3.60
2023-05-03T03:26:19.390Z,3.60
2023-05-03T03:29:21.851Z,3.50
2023-05-03T03:32:24.541Z,3.60
2023-05-03T03:35:27.255Z,3.50
2023-05-03T03:38:29.150Z,3.40
2023-05-03T03:41:36.316Z,3.50
2023-05-03T03:44:38.602Z,3.50
2023-05-03T03:47:42.291Z,3.50
2023-05-03T03:50:45.421Z,3.50
2023-05-03T03:53:48.745Z,3.50
2023-05-03T03:56:52.247Z,3.40
2023-05-03T03:59:54.654Z,3.50
2023-05-03T04:02:56.530Z,3.40
2023-05-03T04:05:58.433Z,3.50
2023-05-03T04:09:01.577Z,3.50
2023-05-03T04:12:05.920Z,3.50
2023-05-03T04:15:09.026Z,3.50
2023-05-03T04:18:12.304Z,3.40
2023-05-03T04:21:16.515Z,3.30
2023-05-03T04:24:19.156Z,3.30
2023-05-03T04:27:21.065Z,3.40
2023-05-03T04:30:23.149Z,3.50
2023-05-03T04:33:29.749Z,3.50
2023-05-03T04:36:35.585Z,3.50
2023-05-03T04:39:37.251Z,3.60
2023-05-03T04:42:39.583Z,3.70
2023-05-03T04:45:42.108Z,3.70
2023-05-03T04:48:47.989Z,3.90
2023-05-03T04:51:49.775Z,3.90
2023-05-03T04:54:52.823Z,4.00
2023-05-03T04:57:55.829Z,4.20
2023-05-03T05:00:57.921Z,4.20
2023-05-03T05:04:04.074Z,4.30
2023-05-03T05:07:15.018Z,4.40
2023-05-03T05:10:19.096Z,4.40
2023-05-03T05:13:21.114Z,4.60
2023-05-03T05:16:23.028Z,4.60
2023-05-03T05:19:28.258Z,4.60
2023-05-03T05:22:30.131Z,4.70
2023-05-03T05:25:34.733Z,4.80
2023-05-03T05:28:37.821Z,5.00
2023-05-03T05:31:39.928Z,5.10
2023-05-03T05:34:45.553Z,5.20
2023-05-03T05:37:51.343Z,5.30
2023-05-03T05:40:53.800Z,5.50
2023-05-03T05:43:56.044Z,5.60
2023-05-03T05:46:57.768Z,5.60
2023-05-03T05:50:00.381Z,5.70
2023-05-03T05:53:02.325Z,5.70
2023-05-03T05:56:09.330Z,5.70
2023-05-03T05:59:11.269Z,5.90
2023-05-03T06:02:18.573Z,5.90
2023-05-03T06:05:22.311Z,6.10
2023-05-03T06:08:24.070Z,6.30
2023-05-03T06:11:26.715Z,6.30
2023-05-03T06:14:28.526Z,6.40
2023-05-03T06:17:30.394Z,6.50
2023-05-03T06:20:32.222Z,6.50
2023-05-03T06:23:35.191Z,6.60
2023-05-03T06:26:37.999Z,6.70
2023-05-03T06:29:39.795Z,6.80
2023-05-03T06:32:42.107Z,6.90
2023-05-03T06:35:47.015Z,7.00
2023-05-03T06:38:50.154Z,7.10
2023-05-03T06:41:51.870Z,7.10
2023-05-03T06:44:54.007Z,7.30
2023-05-03T06:47:56.332Z,7.40
2023-05-03T06:50:58.086Z,7.50
2023-05-03T06:54:06.513Z,7.60
2023-05-03T06:57:08.195Z,7.80
2023-05-03T07:00:10.774Z,7.80
2023-05-03T07:03:12.578Z,7.90
2023-05-03T07:06:15.279Z,8.00
2023-05-03T07:09:17.807Z,8.00
2023-05-03T07:12:20.854Z,8.10
2023-05-03T07:15:22.579Z,8.20
2023-05-03T07:18:24.256Z,8.20
2023-05-03T07:21:26.797Z,8.30
2023-05-03T07:24:28.582Z,8.40
2023-05-03T07:27:30.260Z,8.60
2023-05-03T07:30:31.970Z,8.70
2023-05-03T07:33:37.534Z,8.80
2023-05-03T07:36:39.840Z,8.80
2023-05-03T07:39:41.648Z,8.70
2023-05-03T07:42:43.426Z,8.90
2023-05-03T07:45:45.125Z,9.00
2023-05-03T07:48:46.818Z,9.00
2023-05-03T07:51:48.561Z,9.00
2023-05-03T07:54:50.363Z,9.20
2023-05-03T07:57:53.058Z,9.20
2023-05-03T08:00:55.053Z,9.30
2023-05-03T08:03:57.033Z,9.30
2023-05-03T08:07:02.818Z,9.50
2023-05-03T08:10:05.973Z,9.40
2023-05-03T08:13:08.057Z,9.70
2023-05-03T08:16:10.211Z,9.80
2023-05-03T08:19:11.934Z,9.90
2023-05-03T08:22:13.645Z,9.90
2023-05-03T08:25:17.672Z,10.10
2023-05-03T08:28:19.389Z,10.30
2023-05-03T08:31:21.175Z,10.10
2023-05-03T08:34:22.933Z,10.20
2023-05-03T08:37:24.684Z,10.30
2023-05-03T08:40:28.075Z,10.60
2023-05-03T08:43:31.987Z,10.60
2023-05-03T08:46:37.152Z,10.40
2023-05-03T08:49:40.904Z,10.50
2023-05-03T08:52:44.152Z,10.90
2023-05-03T08:55:45.852Z,11.00
2023-05-03T08:58:47.634Z,11.00
2023-05-03T09:01:49.327Z,11.00
2023-05-03T09:04:51.072Z,10.60
2023-05-03T09:08:07.369Z,11.10
2023-05-03T09:11:23.895Z,11.10
2023-05-03T09:14:25.756Z,11.00
2023-05-03T09:17:27.434Z,11.50
2023-05-03T09:20:36.995Z,11.80
2023-05-03T09:23:39.720Z,12.00
2023-05-03T09:26:42.276Z,11.90
2023-05-03T09:29:44.010Z,11.80
2023-05-03T09:32:49.268Z,12.00
2023-05-03T09:35:58.365Z,12.40
2023-05-03T09:39:16.991Z,12.70
2023-05-03T09:42:19.088Z,12.30
2023-05-03T09:45:24.101Z,12.60
2023-05-03T09:48:26.161Z,13.00
2023-05-03T09:51:28.932Z,13.00
2023-05-03T09:54:37.218Z,12.90
2023-05-03T09:57:39.560Z,13.20
2023-05-03T10:00:43.775Z,13.20
2023-05-03T10:03:50.283Z,13.50
2023-05-03T10:06:56.431Z,13.90
2023-05-03T10:09:59.112Z,13.90
2023-05-03T10:13:03.242Z,14.30
2023-05-03T10:16:14.194Z,14.70
2023-05-03T10:19:28.719Z,14.80
2023-05-03T10:22:31.215Z,15.10
2023-05-03T10:25:34.649Z,15.60
2023-05-03T10:28:39.565Z,15.80
2023-05-03T10:31:48.386Z,15.20
2023-05-03T10:35:09.162Z,15.40
2023-05-03T10:38:20.595Z,15.80
2023-05-03T10:41:27.039Z,16.00
2023-05-03T10:44:48.985Z,16.30
2023-05-03T10:48:12.701Z,16.00
2023-05-03T10:51:30.582Z,16.10
2023-05-03T10:54:32.344Z,16.50
2023-05-03T10:57:35.438Z,16.20
2023-05-03T11:00:41.242Z,16.70
2023-05-03T11:03:54.716Z,16.90
2023-05-03T11:06:56.773Z,16.80
2023-05-03T11:09:58.612Z,16.50
2023-05-03T11:13:00.628Z,16.50
2023-05-03T11:16:03.355Z,16.20
2023-05-03T11:19:07.052Z,16.50
2023-05-03T11:22:08.777Z,16.00
2023-05-03T11:25:10.765Z,16.30
2023-05-03T11:28:12.386Z,16.30
2023-05-03T11:31:15.135Z,16.50
2023-05-03T11:34:17.021Z,15.90
2023-05-03T11:37:18.719Z,16.00
2023-05-03T11:40:21.357Z,15.80
2023-05-03T11:43:23.076Z,15.90
2023-05-03T11:46:28.086Z,15.60
2023-05-03T11:49:29.937Z,16.10
2023-05-03T11:52:31.907Z,16.40
2023-05-03T11:55:33.669Z,16.50
2023-05-03T11:58:35.701Z,16.20
2023-05-03T12:01:37.711Z,16.00
2023-05-03T12:04:42.687Z,16.00
2023-05-03T12:07:47.376Z,16.70
2023-05-03T12:10:52.475Z,16.70
2023-05-03T12:14:00.045Z,16.90
2023-05-03T12:17:02.048Z,17.00
2023-05-03T12:23:25.925Z,17.20
2023-05-03T12:26:28.462Z,17.30
2023-05-03T12:29:34.905Z,17.50
2023-05-03T12:32:44.051Z,17.20
2023-05-03T12:35:48.195Z,17.70
2023-05-03T12:38:55.260Z,17.80
2023-05-03T12:45:05.051Z,17.70
2023-05-03T12:48:07.326Z,17.50
2023-05-03T12:51:19.520Z,17.30
2023-05-03T12:54:25.266Z,17.30
2023-05-03T12:57:30.671Z,17.60
2023-05-03T13:00:36.531Z,18.10
2023-05-03T13:03:43.494Z,18.30
2023-05-03T13:06:47.036Z,18.20
2023-05-03T13:12:56.910Z,17.50
2023-05-03T13:15:59.715Z,17.60
2023-05-03T13:19:01.757Z,18.20
2023-05-03T13:22:03.467Z,18.40
2023-05-03T13:25:05.680Z,18.50
2023-05-03T13:28:07.778Z,18.80
2023-05-03T13:31:11.624Z,18.80
2023-05-03T13:34:13.381Z,18.90
2023-05-03T13:37:19.131Z,18.60
2023-05-03T13:40:20.943Z,18.90
2023-05-03T13:43:22.745Z,18.60
2023-05-03T13:46:24.590Z,19.20
2023-05-03T13:49:26.522Z,19.40
2023-05-03T13:52:28.248Z,19.10
2023-05-03T13:55:29.982Z,19.70
2023-05-03T13:58:31.725Z,19.20
2023-05-03T14:01:34.741Z,19.20
2023-05-03T14:04:36.579Z,18.70
2023-05-03T14:07:38.284Z,19.00
2023-05-03T14:10:40.710Z,18.40
2023-05-03T14:13:55.556Z,19.10
2023-05-03T14:16:58.923Z,19.80
2023-05-03T14:20:00.709Z,20.40
2023-05-03T14:23:04.704Z,20.80
2023-05-03T14:26:07.975Z,21.10
2023-05-03T14:29:09.694Z,20.90
2023-05-03T14:32:11.411Z,21.20
2023-05-03T14:35:13.464Z,20.90
2023-05-03T14:38:15.280Z,20.90
2023-05-03T14:41:16.958Z,20.60
2023-05-03T14:44:18.631Z,20.60
2023-05-03T14:47:20.816Z,21.10
2023-05-03T14:50:22.514Z,21.00
2023-05-03T14:53:24.191Z,21.20
2023-05-03T14:56:25.980Z,20.50
2023-05-03T14:59:27.780Z,20.20
2023-05-03T15:02:29.620Z,19.80
2023-05-03T15:05:31.320Z,20.20
2023-05-03T15:08:33.060Z,20.50
2023-05-03T15:11:36.785Z,20.20
2023-05-03T15:14:38.596Z,20.10
2023-05-03T15:17:40.539Z,20.20
2023-05-03T15:20:42.253Z,20.40
2023-05-03T15:23:43.964Z,20.50
2023-05-03T15:26:46.714Z,21.00
2023-05-03T15:29:48.422Z,20.50
2023-05-03T15:32:51.196Z,19.30
2023-05-03T15:35:53.000Z,19.40
2023-05-03T15:38:54.662Z,19.40
2023-05-03T15:41:56.482Z,19.20
2023-05-03T15:44:58.220Z,18.50
2023-05-03T15:47:59.998Z,19.20
2023-05-03T15:51:01.820Z,19.30
2023-05-03T15:54:03.879Z,20.10
2023-05-03T15:57:05.598Z,20.30
2023-05-03T16:00:09.125Z,19.50
2023-05-03T16:03:10.934Z,19.50
2023-05-03T16:06:12.750Z,19.30
2023-05-03T16:09:15.996Z,21.10
2023-05-03T16:12:17.758Z,21.30
2023-05-03T16:15:19.438Z,21.70
2023-05-03T16:18:21.777Z,21.70
2023-05-03T16:21:23.521Z,20.80
2023-05-03T16:24:25.239Z,19.60
2023-05-03T16:27:26.964Z,18.40
2023-05-03T16:30:28.705Z,18.40
2023-05-03T16:33:30.403Z,18.10
2023-05-03T16:36:33.062Z,17.90
2023-05-03T16:39:36.071Z,17.80
2023-05-03T16:42:42.466Z,17.30
2023-05-03T16:45:44.229Z,17.60
2023-05-03T16:48:45.948Z,18.10
2023-05-03T16:51:47.815Z,17.90
2023-05-03T16:54:49.543Z,17.50
2023-05-03T16:57:51.251Z,17.40
2023-05-03T17:00:53.402Z,16.90
2023-05-03T17:03:55.274Z,17.10
2023-05-03T17:06:57.674Z,17.30
2023-05-03T17:10:00.172Z,16.90
2023-05-03T17:13:02.465Z,16.80
2023-05-03T17:16:10.033Z,16.70
2023-05-03T17:19:12.097Z,16.60
2023-05-03T17:22:13.891Z,16.50
2023-05-03T17:25:16.742Z,16.50
2023-05-03T17:28:18.401Z,16.70
2023-05-03T17:31:20.144Z,17.70
2023-05-03T17:34:22.354Z,17.40
2023-05-03T17:37:24.629Z,17.80
2023-05-03T17:40:26.429Z,17.70
2023-05-03T17:43:28.082Z,17.50
2023-05-03T17:46:29.835Z,16.80
2023-05-03T17:49:35.803Z,16.30
2023-05-03T17:52:37.501Z,16.20
2023-05-03T17:55:39.245Z,16.10
2023-05-03T17:58:41.257Z,15.80
2023-05-03T18:01:42.988Z,15.80
2023-05-03T18:04:44.945Z,15.80
2023-05-03T18:07:46.768Z,15.70
2023-05-03T18:10:48.913Z,15.60
2023-05-03T18:13:50.646Z,15.40
2023-05-03T18:16:55.087Z,15.10
2023-05-03T18:19:57.029Z,15.00
2023-05-03T18:22:58.699Z,15.00
2023-05-03T18:26:00.498Z,14.80
2023-05-03T18:29:02.598Z,14.70
2023-05-03T18:32:05.430Z,14.50
2023-05-03T18:35:07.806Z,14.50
2023-05-03T18:38:10.058Z,14.50
2023-05-03T18:41:14.349Z,14.30
2023-05-03T18:44:17.111Z,14.10
2023-05-03T18:47:21.688Z,14.00
2023-05-03T18:50:23.539Z,14.00
2023-05-03T18:53:28.424Z,13.80
2023-05-03T18:56:31.850Z,13.60
2023-05-03T18:59:33.746Z,13.50
2023-05-03T19:02:35.922Z,13.50
2023-05-03T19:05:37.671Z,13.40
2023-05-03T19:08:40.618Z,13.30
2023-05-03T19:11:44.683Z,13.30
2023-05-03T19:14:46.760Z,13.20
2023-05-03T19:17:48.635Z,13.10
2023-05-03T19:20:50.745Z,13.10
2023-05-03T19:23:52.456Z,12.90
2023-05-03T19:26:54.191Z,12.80
2023-05-03T19:29:56.670Z,12.70
2023-05-03T19:32:58.413Z,12.70
2023-05-03T19:36:06.438Z,12.40
2023-05-03T19:39:11.260Z,12.50
2023-05-03T19:42:13.119Z,12.40
2023-05-03T19:45:14.863Z,12.40
2023-05-03T19:48:17.307Z,12.30
2023-05-03T19:51:19.019Z,12.20
2023-05-03T19:54:21.360Z,12.20
2023-05-03T19:57:23.117Z,12.10
2023-05-03T20:00:26.962Z,12.10
2023-05-03T20:03:29.072Z,12.00
2023-05-03T20:06:31.670Z,11.90
2023-05-03T20:09:34.001Z,11.80
2023-05-03T20:12:35.859Z,11.80
2023-05-03T20:15:37.649Z,11.90
2023-05-03T20:18:39.557Z,11.80
2023-05-03T20:21:41.277Z,11.80
2023-05-03T20:24:43.082Z,11.70
2023-05-03T20:27:45.225Z,11.70
2023-05-03T20:30:47.595Z,11.60
2023-05-03T20:33:50.624Z,11.60
2023-05-03T20:36:53.289Z,11.50
2023-05-03T20:39:55.535Z,11.40
2023-05-03T20:42:58.047Z,11.30
2023-05-03T20:46:00.616Z,12.10
2023-05-03T20:49:03.119Z,11.40
2023-05-03T20:52:05.763Z,10.80
2023-05-03T20:55:08.757Z,11.00
2023-05-03T20:58:12.386Z,11.00
2023-05-03T21:01:14.912Z,11.60
2023-05-03T21:04:17.538Z,11.80
2023-05-03T21:07:19.595Z,11.00
2023-05-03T21:13:37.398Z,11.00
2023-05-03T21:16:39.468Z,10.70
2023-05-03T21:19:41.286Z,10.60
2023-05-03T21:22:43.031Z,10.60
2023-05-03T21:32:33.192Z,10.60
2023-05-03T21:35:34.969Z,10.50
2023-05-03T21:45:23.838Z,10.50
2023-05-03T21:48:26.341Z,10.30
2023-05-03T21:51:32.251Z,10.40
2023-05-03T21:54:34.142Z,10.30
2023-05-03T21:57:36.765Z,10.30
2023-05-03T22:00:40.341Z,10.30
2023-05-03T22:03:42.154Z,10.20
2023-05-03T22:06:44.355Z,10.20
2023-05-03T22:09:47.461Z,10.20
2023-05-03T22:12:49.222Z,10.00
2023-05-03T22:15:50.971Z,10.00
2023-05-03T22:18:52.733Z,10.00
2023-05-03T22:21:54.676Z,10.00
2023-05-03T22:25:00.464Z,10.00
2023-05-03T22:28:02.299Z,9.80
2023-05-03T22:31:04.040Z,9.90
2023-05-03T22:34:05.923Z,9.90
2023-05-03T22:37:07.636Z,9.70
2023-05-03T22:40:09.780Z,9.80
2023-05-03T22:43:11.505Z,9.70
2023-05-03T22:46:13.439Z,9.70
2023-05-03T22:49:15.542Z,9.70
2023-05-03T22:52:17.746Z,9.60
2023-05-03T22:55:19.484Z,9.60
2023-05-03T22:58:21.232Z,9.50
2023-05-03T23:01:24.958Z,9.50
2023-05-03T23:04:26.683Z,9.50
2023-05-03T23:07:28.358Z,9.40
2023-05-03T23:10:30.044Z,9.50
2023-05-03T23:13:31.850Z,9.50
2023-05-03T23:16:33.656Z,9.40
2023-05-03T23:19:35.696Z,9.30
2023-05-03T23:22:40.630Z,9.30
2023-05-03T23:25:42.665Z,9.30
2023-05-03T23:28:44.474Z,9.20
2023-05-03T23:31:46.821Z,9.20
2023-05-03T23:34:49.013Z,9.20
2023-05-03T23:37:51.428Z,9.20
2023-05-03T23:40:53.207Z,9.10
2023-05-03T23:43:54.902Z,9.00
2023-05-03T23:46:56.557Z,8.90
2023-05-03T23:49:58.265Z,8.90
2023-05-03T23:53:01.499Z,8.90
2023-05-03T23:56:03.570Z,8.90
2023-05-03T23:59:05.787Z,8.80
